This is the latest recevied weather packets stored in our database for station/object IU1OLT-6. If no packets are shown the sender has not sent any weather packets the latest 10 day(s).
| Time | Temp. | Humidity | Pressure | Rain* | Wind** | Luminosity | Snow |
|---|---|---|---|---|---|---|---|
| 1788192037 | 17.22° C | 79% | 1012.7 hPa | 0 mm | - | - | - |
| 1788191137 | 17.78° C | 83% | 1012.8 hPa | 0 mm | - | - | - |
| 1788190213 | 17.22° C | 70% | 1013 hPa | 0 mm | - | - | - |
| 1788189253 | 16.67° C | 85% | 1013.2 hPa | 0 mm | - | - | - |
| 1788188293 | 17.22° C | 82% | 1013.2 hPa | 0 mm | - | - | - |
| 1788187381 | 16.67° C | 91% | 1013.2 hPa | 0 mm | - | - | - |
| 1788186373 | 16.67° C | 90% | 1013.1 hPa | 0 mm | - | - | - |
| 1788185413 | 17.78° C | 82% | 1013.1 hPa | 0 mm | - | - | - |
| 1788184453 | 17.78° C | 83% | 1012.9 hPa | 0 mm | - | - | - |
| 1788183493 | 17.78° C | 80% | 1013.1 hPa | 0 mm | - | - | - |
| 1788182533 | 17.78° C | 77% | 1013.2 hPa | 0 mm | - | - | - |
| 1788181477 | 17.78° C | 76% | 1013.4 hPa | 0 mm | - | - | - |
| 1788180517 | 18.89° C | 59% | 1013.2 hPa | 0 mm | - | - | - |
| 1788179605 | 18.33° C | 76% | 1013.4 hPa | 0 mm | - | - | - |
| 1788178693 | 17.22° C | 85% | 1013.5 hPa | 0 mm | - | - | - |
| 1788177733 | 17.22° C | 90% | 1013.5 hPa | 0 mm | - | - | - |
| 1788176773 | 18.89° C | 77% | 1013.5 hPa | 0 mm | - | - | - |
| 1788175813 | 18.33° C | 79% | 1013.6 hPa | 0 mm | - | - | - |
| 1788174853 | 18.89° C | 78% | 1013.6 hPa | 0 mm | - | - | - |
| 1788173893 | 18.33° C | 73% | 1013.5 hPa | 0 mm | - | - | - |
| 1788172933 | 17.78° C | 76% | 1013.6 hPa | 0 mm | - | - | - |
| 1788171925 | 17.78° C | 75% | 1013.5 hPa | 0 mm | - | - | - |
| 1788171013 | 17.78° C | 74% | 1013.6 hPa | 0 mm | - | - | - |
| 1788170054 | 17.78° C | 73% | 1013.5 hPa | 0 mm | - | - | - |
| 1788169141 | 18.33° C | 69% | 1013.4 hPa | 0 mm | - | - | - |
* Rain latest hour (hover to see other rain measurements)
** Current wind speed in m/s (hover to see current wind gust speed)